Time;durP1;ratioP1;P1;durP2;ratioP2;P2;SDS_P1;SDS_P2;PMS_P1;PMS_P2;Temp;Humidity;BMP_temperature;BMP_pressure;BME280_temperature;BME280_humidity;BME280_pressure;Samples;Min_cycle;Max_cycle;Signal;HPM_P1;HPM_P2
2023/05/12 00:00:05;;;;;;;11.60;5.90;;;;;;;10.81;50.25;98037.23;106407;1278;22539;-74
2023/05/12 00:03:01;;;;;;;16.80;6.60;;;;;;;10.74;50.17;98041.73;106394;1278;22627;-74
2023/05/12 00:05:29;;;;;;;8.20;6.10;;;;;;;10.67;50.21;98044.86;106423;1278;25403;-74
2023/05/12 00:07:57;;;;;;;11.50;6.30;;;;;;;10.62;50.26;98049.52;106383;1278;22633;-75
2023/05/12 00:10:28;;;;;;;9.90;5.90;;;;;;;10.59;50.26;98052.33;106368;1278;24269;-75
2023/05/12 00:12:56;;;;;;;8.70;5.60;;;;;;;10.56;50.14;98051.30;106435;1278;22531;-75
2023/05/12 00:15:24;;;;;;;10.60;6.30;;;;;;;10.51;50.50;98047.55;106375;1278;22649;-75
2023/05/12 00:17:52;;;;;;;11.20;6.50;;;;;;;10.44;50.63;98045.83;106395;1278;24383;-75
2023/05/12 00:20:20;;;;;;;8.90;6.20;;;;;;;10.37;50.79;98045.50;106366;1278;25414;-76
2023/05/12 00:22:49;;;;;;;10.30;6.60;;;;;;;10.31;50.82;98047.05;106434;1266;22550;-77
2023/05/12 00:25:17;;;;;;;7.90;6.50;;;;;;;10.26;51.19;98046.64;106574;1269;26597;-76
2023/05/12 00:27:44;;;;;;;10.80;6.50;;;;;;;10.22;51.07;98047.86;106550;1278;22652;-76
2023/05/12 00:30:13;;;;;;;9.20;6.20;;;;;;;10.18;51.11;98045.88;106552;1278;22674;-76
2023/05/12 00:32:41;;;;;;;8.00;6.00;;;;;;;10.15;51.13;98043.65;106566;1278;24326;-75
2023/05/12 00:35:09;;;;;;;10.60;5.90;;;;;;;10.14;51.44;98046.10;106650;1278;22538;-76
2023/05/12 00:37:37;;;;;;;10.90;5.60;;;;;;;10.14;51.52;98044.58;106641;1278;22541;-76
2023/05/12 00:40:05;;;;;;;10.80;5.70;;;;;;;10.13;51.30;98042.55;106627;1278;25512;-76
2023/05/12 00:42:37;;;;;;;8.80;5.80;;;;;;;10.11;51.31;98045.21;106477;1278;25476;-74
2023/05/12 00:45:06;;;;;;;11.20;5.70;;;;;;;10.10;51.40;98045.12;106708;1276;24320;-75
2023/05/12 00:47:34;;;;;;;9.70;6.40;;;;;;;10.07;51.41;98043.02;106764;1276;25351;-75
2023/05/12 00:50:04;;;;;;;10.10;5.70;;;;;;;10.03;51.75;98045.55;106983;1276;22520;-76
2023/05/12 00:52:32;;;;;;;8.20;6.50;;;;;;;9.98;52.27;98043.58;106912;1276;22769;-75
2023/05/12 00:55:02;;;;;;;9.20;6.50;;;;;;;9.98;52.99;98041.63;106690;1276;25142;-76
2023/05/12 00:57:30;;;;;;;9.10;6.30;;;;;;;9.98;52.77;98044.08;106953;1276;22535;-76
2023/05/12 00:59:58;;;;;;;9.50;6.10;;;;;;;9.97;53.31;98041.17;106891;1276;22635;-76
2023/05/12 01:02:26;;;;;;;11.70;6.00;;;;;;;9.97;53.84;98043.11;106686;1276;22630;-76
2023/05/12 01:04:54;;;;;;;10.40;6.20;;;;;;;9.97;54.32;98044.02;106713;1276;22589;-76
2023/05/12 01:07:25;;;;;;;10.70;6.20;;;;;;;9.97;54.11;98047.09;106883;1272;22602;-76
2023/05/12 01:09:56;;;;;;;9.70;6.30;;;;;;;9.96;54.61;98050.98;106972;1276;23155;-76
2023/05/12 01:12:26;;;;;;;10.10;6.50;;;;;;;9.94;54.93;98051.53;106884;1276;22775;-76
2023/05/12 01:14:56;;;;;;;8.30;6.20;;;;;;;9.93;54.84;98052.15;106728;1276;22555;-75
2023/05/12 01:17:32;;;;;;;8.60;6.00;;;;;;;9.90;54.96;98052.80;106706;1276;24378;-75
2023/05/12 01:20:03;;;;;;;9.60;6.60;;;;;;;9.86;54.79;98055.74;106715;1276;25248;-76
2023/05/12 01:22:32;;;;;;;14.80;6.90;;;;;;;9.83;54.71;98051.70;106659;1276;22642;-76
2023/05/12 01:25:04;;;;;;;10.40;6.70;;;;;;;9.79;54.22;98058.91;106835;1276;22930;-75
2023/05/12 01:27:33;;;;;;;10.50;6.70;;;;;;;9.75;54.17;98055.96;106817;1276;22518;-74
2023/05/12 01:30:04;;;;;;;12.60;7.50;;;;;;;9.69;54.32;98056.62;106785;1276;22828;-75
2023/05/12 01:32:37;;;;;;;10.80;6.50;;;;;;;9.64;54.78;98055.13;106747;1276;24170;-76
2023/05/12 01:35:06;;;;;;;8.80;6.70;;;;;;;9.59;54.95;98056.33;106630;1276;25468;-75
2023/05/12 01:37:35;;;;;;;8.00;6.80;;;;;;;9.53;55.71;98053.20;106742;1276;22805;-76
2023/05/12 01:40:05;;;;;;;13.00;7.70;;;;;;;9.48;55.35;98059.77;106797;1276;22630;-76
2023/05/12 01:42:33;;;;;;;9.00;6.70;;;;;;;9.45;55.37;98058.95;106785;1276;23888;-75
2023/05/12 01:45:01;;;;;;;12.40;7.30;;;;;;;9.41;55.02;98058.14;106443;1276;23889;-75
2023/05/12 01:47:30;;;;;;;9.70;7.10;;;;;;;9.37;54.95;98057.71;106772;1276;24192;-75
2023/05/12 01:50:05;;;;;;;10.60;6.50;;;;;;;9.32;55.36;98056.96;106630;1276;23162;-78
2023/05/12 01:52:33;;;;;;;12.20;7.30;;;;;;;9.25;55.49;98053.15;106758;1276;25380;-74
2023/05/12 01:55:02;;;;;;;11.60;7.20;;;;;;;9.19;55.57;98054.90;106481;1276;24353;-75
2023/05/12 01:57:35;;;;;;;11.30;7.20;;;;;;;9.14;55.69;98053.02;106733;1276;24372;-75
2023/05/12 02:00:04;;;;;;;13.40;7.50;;;;;;;9.09;55.67;98053.33;106446;1276;22658;-75
2023/05/12 02:02:41;;;;;;;14.40;8.20;;;;;;;9.04;56.07;98053.06;106842;1257;23793;-75
2023/05/12 02:05:13;;;;;;;9.80;7.20;;;;;;;8.99;56.25;98057.45;106748;1276;25214;-75
2023/05/12 02:07:43;;;;;;;8.80;7.10;;;;;;;8.98;56.80;98059.42;106711;1276;25262;-75
2023/05/12 02:10:11;;;;;;;11.10;7.00;;;;;;;8.97;57.14;98062.05;106729;1276;22640;-75
2023/05/12 02:12:40;;;;;;;11.20;6.80;;;;;;;8.97;57.00;98060.56;106741;1276;23930;-76
2023/05/12 02:15:09;;;;;;;11.70;6.50;;;;;;;8.99;57.61;98063.74;106732;1276;22599;-78
2023/05/12 02:17:40;;;;;;;12.00;7.10;;;;;;;9.00;57.00;98064.92;107022;1276;22831;-77
2023/05/12 02:20:10;;;;;;;10.20;7.40;;;;;;;8.99;56.79;98060.15;106571;1276;23176;-77
2023/05/12 02:22:39;;;;;;;9.80;7.10;;;;;;;8.97;56.75;98055.98;107026;1276;22592;-76
2023/05/12 02:25:07;;;;;;;8.00;6.50;;;;;;;8.93;57.11;98053.76;106805;1276;22534;-75
2023/05/12 02:27:35;;;;;;;10.80;7.60;;;;;;;8.89;57.23;98050.84;106896;1276;22983;-75
2023/05/12 02:30:05;;;;;;;10.20;7.50;;;;;;;8.82;57.68;98046.60;106794;1276;22794;-75
2023/05/12 02:32:33;;;;;;;10.40;7.60;;;;;;;8.74;57.38;98052.33;106515;1276;22626;-78
2023/05/12 02:35:01;;;;;;;10.80;7.70;;;;;;;8.69;57.31;98055.21;106740;1276;23009;-76
2023/05/12 02:37:29;;;;;;;10.80;7.20;;;;;;;8.66;57.52;98058.09;106750;1276;22532;-80
2023/05/12 02:39:57;;;;;;;10.30;7.90;;;;;;;8.66;58.77;98060.31;106683;1276;25309;-76
2023/05/12 02:42:29;;;;;;;10.90;7.20;;;;;;;8.66;59.37;98057.56;106746;1276;22534;-76
2023/05/12 02:44:57;;;;;;;12.30;7.50;;;;;;;8.66;58.78;98055.41;106855;1276;25490;-76
2023/05/12 02:47:25;;;;;;;10.50;7.80;;;;;;;8.65;58.39;98057.19;106876;1276;22962;-76
2023/05/12 02:49:55;;;;;;;9.10;7.40;;;;;;;8.64;58.47;98059.40;106732;1275;25201;-76
2023/05/12 02:52:24;;;;;;;12.50;7.20;;;;;;;8.62;58.28;98062.59;106922;1276;22633;-76
2023/05/12 02:54:52;;;;;;;10.20;7.20;;;;;;;8.60;58.36;98060.23;106580;1276;22744;-76
2023/05/12 02:57:20;;;;;;;10.50;7.50;;;;;;;8.59;58.27;98061.00;106463;1276;25322;-75
2023/05/12 02:59:48;;;;;;;8.70;7.20;;;;;;;8.58;58.49;98060.85;106936;1276;23299;-75
2023/05/12 03:02:16;;;;;;;10.10;7.30;;;;;;;8.57;58.91;98059.13;106600;1276;23945;-76
2023/05/12 03:04:44;;;;;;;12.80;7.50;;;;;;;8.57;59.22;98059.45;106923;1276;24061;-76
2023/05/12 03:07:12;;;;;;;19.70;7.60;;;;;;;8.56;58.75;98055.00;106773;1275;22777;-76
2023/05/12 03:09:40;;;;;;;10.80;7.70;;;;;;;8.56;59.23;98056.73;106600;1276;25460;-76
2023/05/12 03:12:08;;;;;;;10.70;7.70;;;;;;;8.54;59.45;98054.64;106922;1276;22924;-79
2023/05/12 03:14:36;;;;;;;10.50;7.40;;;;;;;8.54;59.77;98052.80;106610;1276;22525;-76
2023/05/12 03:17:04;;;;;;;10.00;6.40;;;;;;;8.54;59.92;98050.50;106430;1276;24043;-79
2023/05/12 03:19:33;;;;;;;10.80;7.30;;;;;;;8.54;59.62;98054.23;106871;1276;22778;-76
2023/05/12 03:22:02;;;;;;;12.10;7.50;;;;;;;8.53;60.31;98051.59;106699;1276;22646;-75
2023/05/12 03:24:30;;;;;;;9.50;7.50;;;;;;;8.52;60.59;98052.14;106586;1276;25243;-75
2023/05/12 03:26:58;;;;;;;10.60;7.50;;;;;;;8.51;60.67;98052.52;106566;1276;22531;-75
2023/05/12 03:29:26;;;;;;;15.30;8.50;;;;;;;8.52;60.93;98051.70;106561;1276;24232;-75
2023/05/12 03:31:54;;;;;;;12.20;8.00;;;;;;;8.52;60.95;98049.13;106905;1276;24180;-75
2023/05/12 03:34:22;;;;;;;12.90;8.00;;;;;;;8.53;60.73;98049.56;106591;1276;22734;-76
2023/05/12 03:36:50;;;;;;;9.40;6.90;;;;;;;8.55;61.70;98055.21;106584;1276;22662;-76
2023/05/12 03:39:18;;;;;;;9.00;6.90;;;;;;;8.59;61.61;98053.64;106666;1276;25494;-76
2023/05/12 03:41:46;;;;;;;11.40;7.10;;;;;;;8.65;61.90;98052.41;106892;1276;22657;-76
2023/05/12 03:44:14;;;;;;;11.30;7.50;;;;;;;8.71;61.92;98051.95;106939;1276;22759;-76
2023/05/12 03:46:42;;;;;;;11.30;6.60;;;;;;;8.73;61.93;98046.10;106860;1276;24262;-76
2023/05/12 03:49:10;;;;;;;8.90;7.10;;;;;;;8.75;62.17;98047.39;106660;1276;22750;-77
2023/05/12 03:51:38;;;;;;;8.60;7.50;;;;;;;8.76;62.21;98049.23;106979;1276;22574;-81
2023/05/12 03:54:06;;;;;;;9.80;7.10;;;;;;;8.78;62.15;98050.30;106967;1276;24340;-78
2023/05/12 03:56:35;;;;;;;12.30;6.70;;;;;;;8.81;62.32;98052.16;106641;1276;23615;-78
2023/05/12 03:59:03;;;;;;;10.10;7.00;;;;;;;8.83;61.99;98049.13;106903;1276;24241;-79
2023/05/12 04:01:31;;;;;;;9.90;6.90;;;;;;;8.87;61.93;98053.38;106717;1276;24383;-79
2023/05/12 04:04:00;;;;;;;10.60;7.80;;;;;;;8.92;61.90;98049.42;106922;1276;22532;-78
2023/05/12 04:06:29;;;;;;;10.30;7.30;;;;;;;8.94;61.57;98050.00;106947;1276;22511;-78
2023/05/12 04:08:57;;;;;;;9.60;7.40;;;;;;;8.98;62.08;98049.63;107224;1276;22519;-79
2023/05/12 04:11:25;;;;;;;8.00;6.70;;;;;;;9.04;61.84;98052.67;106912;1276;22547;-79
2023/05/12 04:13:54;;;;;;;10.30;6.90;;;;;;;9.10;61.75;98052.14;106470;1276;22532;-79
2023/05/12 04:16:22;;;;;;;13.60;7.50;;;;;;;9.17;62.13;98055.19;106934;1276;25370;-79
2023/05/12 04:18:50;;;;;;;12.30;7.30;;;;;;;9.23;62.11;98053.19;106894;1276;24321;-80
2023/05/12 04:21:18;;;;;;;10.10;7.40;;;;;;;9.29;61.74;98051.61;106615;1276;25499;-80
2023/05/12 04:23:51;;;;;;;11.70;8.20;;;;;;;9.35;61.94;98053.37;106581;1276;24281;-80
2023/05/12 04:26:19;;;;;;;9.50;7.60;;;;;;;9.41;61.99;98057.82;106666;1276;22623;-79
2023/05/12 04:28:47;;;;;;;13.00;7.40;;;;;;;9.47;62.19;98062.58;106634;1254;23450;-80
2023/05/12 04:31:15;;;;;;;13.40;7.50;;;;;;;9.54;61.84;98064.18;106603;1276;22649;-79
2023/05/12 04:33:43;;;;;;;9.30;7.30;;;;;;;9.62;61.86;98067.14;106951;1276;22532;-79
2023/05/12 04:36:15;;;;;;;9.30;6.40;;;;;;;9.69;61.87;98064.36;106926;1276;22525;-79
2023/05/12 04:38:43;;;;;;;9.00;6.40;;;;;;;9.77;61.63;98067.71;106944;1276;24331;-79
2023/05/12 04:41:11;;;;;;;9.30;7.00;;;;;;;9.85;61.63;98070.98;106786;1276;22528;-79
2023/05/12 04:43:39;;;;;;;14.90;7.00;;;;;;;9.93;61.56;98072.35;106906;1276;22646;-80
2023/05/12 04:46:10;;;;;;;11.60;7.10;;;;;;;10.03;61.59;98074.30;106687;1276;22532;-79
2023/05/12 04:48:40;;;;;;;8.50;6.60;;;;;;;10.11;61.61;98074.79;107191;1276;25368;-79
2023/05/12 04:51:08;;;;;;;11.20;7.80;;;;;;;10.20;61.29;98080.80;107171;1276;24361;-79
2023/05/12 04:53:36;;;;;;;9.70;7.70;;;;;;;10.29;61.48;98076.66;107463;1276;25468;-78
2023/05/12 04:56:05;;;;;;;9.10;6.20;;;;;;;10.36;61.41;98079.79;107464;1276;22545;-79
2023/05/12 04:58:37;;;;;;;10.10;7.10;;;;;;;10.42;61.09;98079.53;107558;1276;22719;-78
2023/05/12 05:01:06;;;;;;;14.50;7.20;;;;;;;10.49;61.05;98087.23;107514;1276;22521;-76
2023/05/12 05:03:34;;;;;;;11.60;6.30;;;;;;;10.59;60.99;98089.56;106832;1276;25382;-78
2023/05/12 05:06:03;;;;;;;8.90;7.10;;;;;;;10.65;60.98;98088.00;106670;1276;25218;-77
2023/05/12 05:08:31;;;;;;;17.10;6.70;;;;;;;10.73;60.97;98087.98;106899;1276;22779;-78
2023/05/12 05:10:59;;;;;;;9.30;6.00;;;;;;;10.80;60.88;98088.09;106773;1276;22525;-77
2023/05/12 05:13:28;;;;;;;9.50;7.20;;;;;;;10.87;60.68;98092.11;106769;1276;22784;-77
2023/05/12 05:15:56;;;;;;;8.90;6.40;;;;;;;10.96;60.75;98097.91;106817;1276;24406;-77
2023/05/12 05:18:25;;;;;;;7.70;6.80;;;;;;;11.05;60.56;98097.05;106858;1276;22547;-77
2023/05/12 05:20:54;;;;;;;11.90;6.90;;;;;;;11.13;60.62;98091.24;106753;1276;22522;-77
2023/05/12 05:23:26;;;;;;;9.30;6.60;;;;;;;11.27;60.55;98096.16;106810;1276;22530;-77
2023/05/12 05:25:54;;;;;;;9.00;6.10;;;;;;;11.37;60.52;98094.70;106773;1276;22639;-77
2023/05/12 05:28:23;;;;;;;11.10;6.60;;;;;;;11.45;60.32;98098.04;106646;1276;24472;-77
2023/05/12 05:30:51;;;;;;;8.60;6.70;;;;;;;11.55;60.24;98092.66;107035;1276;22979;-77
2023/05/12 05:33:20;;;;;;;9.80;7.40;;;;;;;11.65;60.17;98095.06;106670;1276;23786;-77
2023/05/12 05:35:48;;;;;;;13.80;8.60;;;;;;;11.74;60.17;98095.19;106984;1276;22618;-77
2023/05/12 05:38:17;;;;;;;10.30;7.10;;;;;;;11.85;60.07;98104.33;106557;1276;22816;-77
2023/05/12 05:40:45;;;;;;;14.20;8.00;;;;;;;11.93;60.08;98104.57;106560;1276;23299;-77
2023/05/12 05:43:22;;;;;;;11.30;7.50;;;;;;;12.03;60.17;98106.13;106802;1276;25924;-77
2023/05/12 05:45:50;;;;;;;13.10;7.30;;;;;;;12.10;60.23;98103.60;106920;1276;22520;-76
2023/05/12 05:48:20;;;;;;;10.20;6.90;;;;;;;12.21;60.24;98103.85;106788;1276;188563;-76
2023/05/12 05:50:50;;;;;;;13.60;7.40;;;;;;;12.31;60.14;98111.19;106765;1275;22920;-75
2023/05/12 05:53:20;;;;;;;15.60;12.60;;;;;;;12.41;60.26;98107.33;106778;1276;25265;-76
2023/05/12 05:55:48;;;;;;;10.50;7.10;;;;;;;12.50;60.06;98112.59;106803;1276;24442;-79
2023/05/12 05:58:16;;;;;;;11.30;6.90;;;;;;;12.61;59.93;98109.43;106809;1276;22725;-79
2023/05/12 06:00:45;;;;;;;8.90;6.10;;;;;;;12.82;60.18;98109.04;106830;1276;22787;-77
2023/05/12 06:03:14;;;;;;;8.00;5.60;;;;;;;13.07;60.21;98108.35;106810;1276;24437;-75
2023/05/12 06:05:43;;;;;;;11.10;5.60;;;;;;;13.34;60.18;98113.32;107060;1276;22777;-75
2023/05/12 06:08:12;;;;;;;9.50;6.10;;;;;;;13.50;59.34;98110.84;106517;1276;25623;-79
2023/05/12 06:10:40;;;;;;;10.10;6.10;;;;;;;13.53;59.20;98111.40;106810;1276;22649;-80
2023/05/12 06:13:08;;;;;;;11.10;6.60;;;;;;;13.54;58.94;98115.31;106932;1276;22608;-79
2023/05/12 06:15:36;;;;;;;8.90;6.20;;;;;;;13.54;58.69;98119.48;106654;1276;24399;-80
2023/05/12 06:18:04;;;;;;;11.30;6.00;;;;;;;13.51;58.38;98126.23;106650;1276;22529;-79
2023/05/12 06:20:32;;;;;;;14.00;6.80;;;;;;;13.53;58.30;98128.84;106968;1276;25336;-79
2023/05/12 06:23:01;;;;;;;15.40;6.70;;;;;;;13.57;57.90;98131.00;106795;1276;24215;-80
2023/05/12 06:25:29;;;;;;;8.80;6.40;;;;;;;13.54;57.50;98127.13;106765;1276;23896;-79
2023/05/12 06:27:57;;;;;;;11.60;6.70;;;;;;;13.55;57.81;98125.89;106762;1263;22531;-79
2023/05/12 06:30:26;;;;;;;10.20;7.10;;;;;;;13.62;57.39;98125.02;107005;1276;22535;-79
2023/05/12 06:32:54;;;;;;;9.40;6.00;;;;;;;13.66;57.56;98127.30;106832;1276;25360;-80
2023/05/12 06:35:23;;;;;;;9.50;6.30;;;;;;;13.74;57.24;98126.09;106824;1261;25380;-78
2023/05/12 06:37:50;;;;;;;9.20;5.90;;;;;;;13.83;57.40;98124.54;106849;1276;22645;-78
2023/05/12 06:40:18;;;;;;;7.80;6.20;;;;;;;13.92;56.83;98124.74;106861;1276;25395;-78
2023/05/12 06:42:46;;;;;;;20.00;6.90;;;;;;;13.98;57.13;98125.04;106835;1276;22532;-79
2023/05/12 06:45:19;;;;;;;14.30;6.20;;;;;;;14.06;56.85;98124.97;106829;1276;23047;-78
2023/05/12 06:47:49;;;;;;;12.40;6.20;;;;;;;14.13;56.55;98121.51;106779;1276;22542;-79
2023/05/12 06:50:18;;;;;;;10.10;6.10;;;;;;;14.24;56.54;98124.95;107095;1276;24336;-78
2023/05/12 06:52:51;;;;;;;14.10;6.10;;;;;;;14.41;56.51;98124.48;107118;1276;22689;-79
2023/05/12 06:55:19;;;;;;;8.80;6.10;;;;;;;14.54;56.00;98126.25;106837;1276;22643;-80
2023/05/12 06:57:50;;;;;;;10.60;5.80;;;;;;;14.62;55.47;98126.45;107016;1276;22544;-78
2023/05/12 07:00:18;;;;;;;8.50;5.90;;;;;;;14.67;55.44;98124.13;107064;1276;25520;-77
2023/05/12 07:02:46;;;;;;;18.70;5.50;;;;;;;14.78;55.29;98125.61;107048;1276;23633;-78
2023/05/12 07:05:14;;;;;;;10.00;5.60;;;;;;;14.93;54.87;98129.90;107061;1276;22926;-77
2023/05/12 07:07:43;;;;;;;12.20;6.50;;;;;;;15.06;54.49;98134.27;107046;1276;22781;-78
2023/05/12 07:10:11;;;;;;;13.30;5.90;;;;;;;15.18;54.49;98133.63;107071;1276;25486;-77
2023/05/12 07:12:39;;;;;;;17.80;6.50;;;;;;;15.28;54.22;98132.64;107061;1276;25440;-77
2023/05/12 07:15:08;;;;;;;6.70;5.50;;;;;;;15.38;54.20;98129.34;107050;1276;22525;-79
2023/05/12 07:17:36;;;;;;;10.00;7.10;;;;;;;15.53;54.13;98127.45;107081;1276;25413;-80
2023/05/12 07:20:05;;;;;;;9.50;6.00;;;;;;;15.63;52.54;98128.96;107127;1276;25444;-79
2023/05/12 07:22:34;;;;;;;12.40;4.80;;;;;;;15.70;52.00;98126.63;107064;1276;22534;-80
2023/05/12 07:25:06;;;;;;;9.40;5.10;;;;;;;15.73;51.24;98125.83;107050;1276;22933;-80
2023/05/12 07:27:34;;;;;;;8.80;5.30;;;;;;;15.81;51.17;98126.08;107101;1276;25288;-80
2023/05/12 07:30:06;;;;;;;9.70;5.60;;;;;;;15.91;50.33;98126.39;107073;1276;22563;-79
2023/05/12 07:32:34;;;;;;;7.30;5.00;;;;;;;15.96;50.54;98128.19;107119;1276;25313;-79
2023/05/12 07:35:02;;;;;;;9.30;5.10;;;;;;;16.07;50.97;98130.90;107088;1276;22647;-80
2023/05/12 07:37:30;;;;;;;8.50;5.60;;;;;;;16.22;50.46;98128.30;107088;1276;22554;-79
2023/05/12 07:39:59;;;;;;;8.40;5.00;;;;;;;16.32;50.16;98127.90;107135;1276;22521;-79
2023/05/12 07:42:26;;;;;;;7.50;4.70;;;;;;;16.41;49.78;98131.57;107093;1276;22636;-79
2023/05/12 07:44:55;;;;;;;9.70;5.00;;;;;;;16.49;49.33;98134.88;107086;1276;22596;-79
2023/05/12 07:47:23;;;;;;;8.60;5.40;;;;;;;16.52;48.23;98136.95;107100;1276;22788;-79
2023/05/12 07:49:51;;;;;;;15.30;6.00;;;;;;;16.51;48.00;98136.14;107104;1276;24095;-79
2023/05/12 07:52:19;;;;;;;7.80;6.00;;;;;;;16.52;47.64;98132.90;107075;1276;22507;-79
2023/05/12 07:54:46;;;;;;;8.70;5.30;;;;;;;16.56;48.51;98137.25;107115;1276;22531;-80
2023/05/12 07:57:15;;;;;;;9.50;5.50;;;;;;;16.70;48.37;98134.42;106848;1276;22861;-79
2023/05/12 07:59:43;;;;;;;8.90;5.00;;;;;;;16.82;48.51;98133.80;107078;1276;22538;-80
2023/05/12 08:02:11;;;;;;;7.50;4.50;;;;;;;16.92;48.44;98136.80;107074;1276;22749;-76
2023/05/12 08:04:39;;;;;;;10.80;5.00;;;;;;;16.99;48.52;98135.73;106857;1276;24392;-79
2023/05/12 08:07:10;;;;;;;10.50;5.10;;;;;;;17.15;48.49;98136.29;107130;1276;23375;-80
2023/05/12 08:09:38;;;;;;;9.00;4.40;;;;;;;17.27;48.10;98136.80;107065;1276;22531;-80
2023/05/12 08:12:06;;;;;;;9.80;4.90;;;;;;;17.38;47.97;98135.46;107097;1276;22633;-80
2023/05/12 08:14:34;;;;;;;7.20;4.00;;;;;;;17.50;47.93;98139.73;107106;1276;22531;-79
2023/05/12 08:17:03;;;;;;;6.00;4.20;;;;;;;17.60;47.79;98144.12;107058;1276;22524;-80
2023/05/12 08:19:31;;;;;;;8.80;4.40;;;;;;;17.71;47.36;98145.27;107205;1276;22605;-79
2023/05/12 08:22:00;;;;;;;10.80;4.40;;;;;;;17.75;47.00;98151.61;107058;1276;24805;-80
2023/05/12 08:24:29;;;;;;;10.50;4.80;;;;;;;17.84;47.25;98148.52;107149;1276;22534;-80
2023/05/12 08:26:57;;;;;;;9.10;4.90;;;;;;;17.96;46.81;98153.02;107234;1276;23274;-80
2023/05/12 08:29:25;;;;;;;8.10;4.50;;;;;;;18.01;46.33;98154.20;107207;1276;22568;-80
2023/05/12 08:31:53;;;;;;;8.30;4.50;;;;;;;18.02;46.38;98154.39;107129;1276;22533;-79
2023/05/12 08:34:21;;;;;;;8.80;4.70;;;;;;;18.10;46.68;98156.95;107081;1276;25389;-78
2023/05/12 08:36:50;;;;;;;8.60;4.20;;;;;;;18.24;46.89;98152.27;107173;1276;23921;-78
2023/05/12 08:39:19;;;;;;;7.50;4.70;;;;;;;18.39;46.71;98152.95;107108;1276;25219;-78
2023/05/12 08:42:09;;;;;;;10.70;5.00;;;;;;;18.48;46.18;98149.63;107114;1276;22532;-78
2023/05/12 08:44:37;;;;;;;7.80;4.30;;;;;;;18.56;46.09;98145.66;107098;1276;22641;-79
2023/05/12 08:47:06;;;;;;;11.00;4.60;;;;;;;18.63;46.15;98150.21;107152;1276;24240;-78
2023/05/12 08:49:37;;;;;;;8.20;4.30;;;;;;;18.71;46.09;98152.66;107059;1276;26765;-79
2023/05/12 08:52:07;;;;;;;7.80;4.00;;;;;;;18.84;45.96;98153.81;107026;1276;22622;-80
2023/05/12 08:54:35;;;;;;;7.00;4.60;;;;;;;18.96;45.98;98151.36;107093;1276;22540;-78
2023/05/12 08:57:23;;;;;;;10.10;5.00;;;;;;;19.12;45.17;98151.16;107050;1276;25248;-78
2023/05/12 08:59:58;;;;;;;13.30;4.70;;;;;;;19.13;44.88;98153.52;107141;1276;22543;-78
2023/05/12 09:02:27;;;;;;;11.20;4.50;;;;;;;19.12;44.69;98155.77;107139;1276;25286;-78
2023/05/12 09:05:08;;;;;;;12.40;4.60;;;;;;;19.15;44.56;98157.33;107119;1276;22532;-79
2023/05/12 09:07:41;;;;;;;8.10;4.30;;;;;;;19.21;44.68;98157.80;107091;1276;22528;-77
2023/05/12 09:10:18;;;;;;;7.00;4.40;;;;;;;19.31;44.45;98157.39;107194;1276;22525;-77
2023/05/12 09:13:11;;;;;;;10.80;4.60;;;;;;;19.35;43.67;98153.34;107063;1276;23149;-79
2023/05/12 09:15:43;;;;;;;13.70;5.30;;;;;;;19.39;43.57;98157.27;107132;1276;22543;-76
2023/05/12 09:18:11;;;;;;;8.40;4.40;;;;;;;19.42;43.16;98158.38;106862;1276;23787;-78
2023/05/12 09:20:39;;;;;;;10.70;4.70;;;;;;;19.46;43.41;98158.70;106956;1276;25488;-80
2023/05/12 09:23:21;;;;;;;11.10;4.40;;;;;;;19.56;43.12;98154.36;106900;1271;22675;-79
2023/05/12 09:26:00;;;;;;;12.10;3.80;;;;;;;19.67;43.13;98157.53;106874;1276;22531;-79
2023/05/12 09:28:36;;;;;;;8.40;4.20;;;;;;;19.81;43.29;98160.32;106870;1276;22529;-80
2023/05/12 09:31:17;;;;;;;11.10;4.90;;;;;;;19.98;43.00;98164.80;107139;1254;22591;-79
2023/05/12 09:33:46;;;;;;;9.30;4.10;;;;;;;20.00;42.03;98159.77;107092;1276;25393;-78
2023/05/12 09:36:21;;;;;;;6.50;4.20;;;;;;;20.02;41.88;98155.34;106785;1276;25358;-78
2023/05/12 09:39:03;;;;;;;7.60;4.40;;;;;;;20.10;41.37;98154.05;106748;1273;22546;-79
2023/05/12 09:41:34;;;;;;;11.50;3.50;;;;;;;20.20;41.26;98155.77;106903;1276;24125;-78
2023/05/12 09:44:03;;;;;;;14.50;4.00;;;;;;;20.36;41.20;98154.80;106763;1276;24212;-79
2023/05/12 09:46:31;;;;;;;16.20;4.20;;;;;;;20.48;40.66;98153.17;107083;1276;22546;-78
2023/05/12 09:49:01;;;;;;;10.90;4.00;;;;;;;20.51;39.71;98155.85;107061;1274;22535;-79
2023/05/12 09:51:30;;;;;;;6.70;3.50;;;;;;;20.50;40.22;98154.23;106950;1276;22637;-79
2023/05/12 09:53:59;;;;;;;9.00;4.30;;;;;;;20.59;40.48;98152.90;107054;1276;22549;-79
2023/05/12 09:56:28;;;;;;;10.20;4.20;;;;;;;20.71;39.69;98146.98;106864;1276;23030;-79
2023/05/12 09:58:57;;;;;;;6.50;3.40;;;;;;;20.73;40.05;98150.37;107119;1276;22541;-79
2023/05/12 10:01:26;;;;;;;14.00;4.10;;;;;;;20.83;38.77;98141.05;107061;1260;23468;-76
2023/05/12 10:03:56;;;;;;;7.90;3.60;;;;;;;20.76;38.76;98141.59;106878;1276;25258;-81
2023/05/12 10:06:31;;;;;;;11.30;3.80;;;;;;;20.79;38.90;98141.98;107135;1276;22653;-82
2023/05/12 10:09:19;;;;;;;15.20;4.50;;;;;;;20.93;38.54;98144.44;107163;1276;24320;-81
2023/05/12 10:11:49;;;;;;;5.50;3.30;;;;;;;21.03;36.91;98145.67;107031;1276;25230;-78
2023/05/12 10:14:22;;;;;;;8.90;3.40;;;;;;;21.03;36.47;98152.31;107066;1276;22781;-80
2023/05/12 10:16:51;;;;;;;8.70;3.30;;;;;;;21.00;36.01;98146.21;106888;1276;24269;-80
2023/05/12 10:19:20;;;;;;;5.60;3.20;;;;;;;21.02;36.61;98151.73;106865;1276;22531;-79
2023/05/12 10:21:49;;;;;;;8.20;3.30;;;;;;;21.17;36.88;98152.96;107033;1276;24358;-78
2023/05/12 10:24:19;;;;;;;8.20;3.30;;;;;;;21.28;36.14;98154.52;107136;1276;22641;-79
2023/05/12 10:26:47;;;;;;;11.00;3.50;;;;;;;21.30;35.36;98152.20;107078;1276;22523;-79
2023/05/12 10:29:15;;;;;;;11.10;3.40;;;;;;;21.32;36.01;98154.65;107048;1276;22547;-80
2023/05/12 10:31:44;;;;;;;8.20;3.50;;;;;;;21.44;35.99;98150.60;107108;1276;22619;-79
2023/05/12 10:34:17;;;;;;;6.10;3.10;;;;;;;21.55;35.14;98145.16;107073;1276;25674;-79
2023/05/12 10:36:50;;;;;;;6.50;3.20;;;;;;;21.54;34.49;98148.98;107111;1276;25472;-79
2023/05/12 10:39:18;;;;;;;9.90;3.50;;;;;;;21.21;34.68;98145.46;106978;1276;22567;-76
2023/05/12 10:41:46;;;;;;;9.10;3.30;;;;;;;21.03;34.92;98148.48;107116;1276;25274;-76
2023/05/12 10:44:25;;;;;;;6.20;3.50;;;;;;;20.99;34.91;98148.41;107054;1276;22544;-75
2023/05/12 10:47:00;;;;;;;5.20;2.80;;;;;;;21.02;35.16;98148.08;107073;1276;22934;-77
2023/05/12 10:49:33;;;;;;;7.10;3.20;;;;;;;20.99;35.14;98145.20;107062;1267;24361;-78
2023/05/12 10:52:01;;;;;;;7.10;3.30;;;;;;;20.88;34.86;98141.61;107209;1276;24252;-77
2023/05/12 10:54:38;;;;;;;7.30;3.40;;;;;;;20.86;34.81;98142.34;107151;1269;22786;-77
2023/05/12 10:57:14;;;;;;;10.40;3.50;;;;;;;20.81;34.84;98142.58;107121;1276;25233;-77
2023/05/12 10:59:56;;;;;;;5.40;3.30;;;;;;;20.72;34.91;98145.83;107075;1276;22514;-80
2023/05/12 11:02:29;;;;;;;5.70;3.20;;;;;;;20.67;34.86;98144.63;107115;1276;25261;-80
2023/05/12 11:05:03;;;;;;;7.40;3.30;;;;;;;20.72;34.72;98151.15;107087;1276;23241;-79
2023/05/12 11:07:33;;;;;;;6.80;3.10;;;;;;;20.82;34.57;98153.16;107150;1276;22608;-78
2023/05/12 11:10:04;;;;;;;6.70;2.70;;;;;;;20.86;34.51;98147.60;106981;1276;25652;-78
2023/05/12 11:12:34;;;;;;;7.90;3.60;;;;;;;20.81;34.32;98148.74;107070;1276;22633;-79
2023/05/12 11:15:05;;;;;;;6.00;3.30;;;;;;;20.61;34.06;98143.01;107052;1276;25345;-78
2023/05/12 11:17:38;;;;;;;8.60;3.40;;;;;;;20.37;34.27;98135.20;107137;1276;23554;-78
2023/05/12 11:20:08;;;;;;;9.00;2.90;;;;;;;20.28;34.47;98138.52;107145;1276;22551;-78
2023/05/12 11:22:39;;;;;;;10.20;3.30;;;;;;;20.50;34.83;98144.09;106895;1276;24250;-80
2023/05/12 11:25:09;;;;;;;7.40;3.30;;;;;;;20.74;34.06;98147.27;107092;1276;24087;-80
2023/05/12 11:27:41;;;;;;;7.40;2.90;;;;;;;20.78;33.83;98154.64;107088;1253;22771;-79
2023/05/12 11:30:10;;;;;;;11.00;3.40;;;;;;;20.83;33.90;98153.40;106880;1276;25390;-80
2023/05/12 11:32:37;;;;;;;5.80;3.00;;;;;;;21.04;34.17;98149.20;107135;1276;23911;-81
2023/05/12 11:35:10;;;;;;;6.50;2.90;;;;;;;21.48;33.97;98146.52;107193;1276;24234;-79